Time;durP1;ratioP1;P1;durP2;ratioP2;P2;SDS_P1;SDS_P2;PMS_P1;PMS_P2;Temp;Humidity;BMP_temperature;BMP_pressure;BME280_temperature;BME280_humidity;BME280_pressure;Samples;Min_cycle;Max_cycle;Signal;HPM_P1;HPM_P2
2021/09/13 00:00:19;;;;;;;29.85;5.18;;;14.60;99.90;;;;;;5015905;28;20498;-85
2021/09/13 00:02:45;;;;;;;18.15;4.43;;;14.50;99.90;;;;;;5033850;28;20031;-85
2021/09/13 00:05:10;;;;;;;18.52;3.38;;;14.40;99.90;;;;;;5032147;28;20061;-85
2021/09/13 00:07:36;;;;;;;17.38;3.47;;;14.40;99.90;;;;;;5032581;28;20076;-84
2021/09/13 00:10:03;;;;;;;29.23;4.78;;;14.50;99.90;;;;;;5032276;28;20108;-86
2021/09/13 00:12:29;;;;;;;35.15;4.25;;;14.50;99.90;;;;;;5032153;28;20544;-85
2021/09/13 00:14:54;;;;;;;19.65;3.72;;;14.40;99.90;;;;;;5032115;28;20037;-83
2021/09/13 00:17:20;;;;;;;22.60;3.80;;;14.40;99.90;;;;;;5033414;28;20412;-84
2021/09/13 00:19:45;;;;;;;31.50;5.35;;;14.40;99.90;;;;;;5031677;28;20033;-85
2021/09/13 00:22:11;;;;;;;19.13;4.07;;;14.30;99.90;;;;;;5032237;28;20025;-86
2021/09/13 00:24:37;;;;;;;33.53;4.13;;;14.30;99.90;;;;;;5033115;28;20033;-84
2021/09/13 00:27:02;;;;;;;37.78;5.03;;;14.20;99.90;;;;;;5031998;28;20021;-86
2021/09/13 00:29:28;;;;;;;25.20;4.10;;;14.30;99.90;;;;;;5015301;28;20025;-84
2021/09/13 00:31:53;;;;;;;28.75;5.03;;;14.30;99.90;;;;;;5032048;28;20025;-85
2021/09/13 00:34:19;;;;;;;25.63;4.75;;;14.40;99.90;;;;;;5031780;28;20087;-84
2021/09/13 00:36:44;;;;;;;22.15;3.25;;;14.40;99.90;;;;;;5031864;28;20026;-85
2021/09/13 00:39:10;;;;;;;20.00;4.13;;;14.30;99.90;;;;;;5033169;28;20025;-84
2021/09/13 00:41:36;;;;;;;22.98;3.58;;;14.40;99.90;;;;;;5031486;28;20028;-84
2021/09/13 00:44:02;;;;;;;24.52;4.53;;;14.40;99.90;;;;;;5031615;28;20028;-84
2021/09/13 00:46:27;;;;;;;26.33;3.95;;;14.40;99.90;;;;;;5014620;28;20026;-85
2021/09/13 00:48:53;;;;;;;22.00;4.53;;;14.40;99.90;;;;;;5033023;28;20025;-84
2021/09/13 00:51:18;;;;;;;28.55;4.75;;;14.30;99.90;;;;;;5032668;28;20405;-84
2021/09/13 00:53:44;;;;;;;20.83;4.05;;;14.30;99.90;;;;;;5031433;28;20080;-84
2021/09/13 00:56:10;;;;;;;17.83;3.97;;;14.30;99.90;;;;;;5031512;28;20029;-84
2021/09/13 00:58:36;;;;;;;16.55;4.50;;;14.20;99.90;;;;;;5032665;28;20033;-84
2021/09/13 01:01:03;;;;;;;32.22;5.22;;;14.20;99.90;;;;;;5031451;28;20026;-85
2021/09/13 01:03:29;;;;;;;21.15;3.47;;;14.20;99.90;;;;;;5014964;28;20083;-85
2021/09/13 01:05:54;;;;;;;13.77;3.35;;;14.20;99.90;;;;;;5032422;28;20033;-85
2021/09/13 01:08:21;;;;;;;24.80;4.45;;;14.20;99.90;;;;;;5014902;28;20029;-85
2021/09/13 01:10:48;;;;;;;17.85;3.50;;;14.20;99.90;;;;;;5032223;28;20022;-85
2021/09/13 01:13:13;;;;;;;34.15;6.18;;;14.20;99.90;;;;;;5031289;28;20049;-84
2021/09/13 01:15:40;;;;;;;20.13;3.45;;;14.20;99.90;;;;;;5032250;28;20075;-85
2021/09/13 01:18:05;;;;;;;32.80;5.88;;;14.10;99.90;;;;;;5032370;28;20022;-84
2021/09/13 01:20:32;;;;;;;32.38;4.18;;;14.20;99.90;;;;;;5032361;28;20075;-84
2021/09/13 01:23:03;;;;;;;19.02;4.13;;;14.20;99.90;;;;;;5030779;28;20026;-85
2021/09/13 01:25:29;;;;;;;32.28;4.82;;;14.10;99.90;;;;;;5030730;28;20402;-84
2021/09/13 01:27:54;;;;;;;20.48;3.78;;;14.30;99.90;;;;;;5032235;28;20018;-84
2021/09/13 01:30:20;;;;;;;26.98;3.78;;;14.10;99.90;;;;;;5030986;28;20518;-84
2021/09/13 01:32:45;;;;;;;35.85;4.82;;;14.10;99.90;;;;;;5014222;28;20480;-84
2021/09/13 01:35:11;;;;;;;15.57;3.85;;;14.20;99.90;;;;;;5030667;28;20037;-83
2021/09/13 01:37:36;;;;;;;28.08;3.97;;;14.10;99.90;;;;;;5030784;28;20116;-85
2021/09/13 01:40:03;;;;;;;25.95;4.65;;;14.10;99.90;;;;;;5030821;28;20031;-85
2021/09/13 01:42:29;;;;;;;21.50;3.58;;;14.10;99.90;;;;;;5031716;28;20079;-84
2021/09/13 01:44:54;;;;;;;27.65;5.18;;;14.10;99.90;;;;;;5031661;28;20030;-85
2021/09/13 01:47:21;;;;;;;27.98;3.97;;;14.10;99.90;;;;;;5031889;28;20105;-84
2021/09/13 01:49:46;;;;;;;19.90;3.25;;;14.10;99.90;;;;;;5031911;28;20490;-84
2021/09/13 01:52:12;;;;;;;25.77;3.67;;;14.00;99.90;;;;;;5030309;28;20103;-84
2021/09/13 01:54:37;;;;;;;20.27;3.78;;;14.20;99.90;;;;;;5029810;28;20402;-83
2021/09/13 01:57:03;;;;;;;13.50;2.88;;;14.10;99.90;;;;;;5013772;28;20025;-84
2021/09/13 01:59:28;;;;;;;20.25;3.45;;;14.10;99.90;;;;;;5031364;28;20078;-85
2021/09/13 02:01:54;;;;;;;18.13;4.82;;;14.10;99.90;;;;;;5031795;28;20037;-83
2021/09/13 02:04:20;;;;;;;26.05;4.15;;;14.10;99.90;;;;;;5031211;28;20033;-84
2021/09/13 02:06:45;;;;;;;36.33;6.90;;;14.10;99.90;;;;;;5031452;28;20501;-84
2021/09/13 02:09:11;;;;;;;28.02;3.83;;;14.20;99.90;;;;;;5031734;28;20063;-84
2021/09/13 02:11:36;;;;;;;30.35;4.97;;;14.10;99.90;;;;;;5031685;28;20506;-85
2021/09/13 02:14:02;;;;;;;20.05;4.82;;;14.10;99.90;;;;;;5031173;28;20040;-84
2021/09/13 02:16:27;;;;;;;27.55;5.03;;;14.10;99.90;;;;;;5031551;28;20029;-84
2021/09/13 02:18:53;;;;;;;16.25;3.97;;;14.10;99.90;;;;;;5013867;28;20037;-84
2021/09/13 02:21:18;;;;;;;20.38;3.80;;;14.10;99.90;;;;;;5031573;28;20036;-83
2021/09/13 02:23:44;;;;;;;20.77;4.40;;;14.00;99.90;;;;;;5031067;28;20029;-84
2021/09/13 02:26:10;;;;;;;17.17;4.15;;;14.00;99.90;;;;;;5031430;28;20022;-84
2021/09/13 02:28:35;;;;;;;29.50;4.35;;;13.90;99.90;;;;;;5030298;28;20551;-84
2021/09/13 02:31:01;;;;;;;23.65;3.50;;;14.00;99.90;;;;;;5031671;28;20067;-85
2021/09/13 02:33:26;;;;;;;35.08;4.30;;;14.00;99.90;;;;;;5029979;28;20372;-84
2021/09/13 02:35:52;;;;;;;17.10;3.00;;;14.00;99.90;;;;;;5031185;28;20105;-84
2021/09/13 02:38:17;;;;;;;23.23;4.30;;;14.00;99.90;;;;;;5031463;28;20030;-84
2021/09/13 02:40:43;;;;;;;34.67;4.20;;;14.00;99.90;;;;;;5031427;28;20041;-84
2021/09/13 02:43:09;;;;;;;15.90;3.58;;;14.00;99.90;;;;;;5031493;28;20028;-84
2021/09/13 02:45:34;;;;;;;22.23;3.88;;;14.00;99.90;;;;;;5029586;28;20425;-84
2021/09/13 02:48:00;;;;;;;27.08;4.43;;;14.00;99.90;;;;;;5030121;28;20030;-83
2021/09/13 02:50:25;;;;;;;27.75;4.07;;;14.00;99.90;;;;;;5031304;28;20492;-84
2021/09/13 02:52:51;;;;;;;18.65;3.85;;;14.00;99.90;;;;;;5030098;28;20021;-84
2021/09/13 02:55:16;;;;;;;17.40;3.25;;;13.90;99.90;;;;;;5030729;28;20394;-84
2021/09/13 02:57:42;;;;;;;20.50;4.35;;;14.00;99.90;;;;;;5030056;28;20037;-83
2021/09/13 03:00:08;;;;;;;12.65;4.25;;;14.00;99.90;;;;;;5029826;28;20054;-84
2021/09/13 03:02:34;;;;;;;25.40;4.00;;;14.00;99.90;;;;;;5031264;28;20038;-83
2021/09/13 03:04:59;;;;;;;29.02;5.10;;;14.00;99.90;;;;;;5030587;28;20038;-84
2021/09/13 03:07:25;;;;;;;22.67;3.30;;;14.00;99.90;;;;;;5029838;28;20033;-83
2021/09/13 03:09:50;;;;;;;22.55;4.18;;;14.00;99.90;;;;;;5031196;28;20065;-83
2021/09/13 03:12:16;;;;;;;31.38;3.92;;;14.00;99.90;;;;;;5033572;28;20033;-83
2021/09/13 03:14:41;;;;;;;22.15;4.03;;;14.10;99.90;;;;;;5034356;28;20044;-83
2021/09/13 03:17:07;;;;;;;18.58;4.22;;;14.10;99.90;;;;;;5034673;28;20041;-83
2021/09/13 03:19:32;;;;;;;23.75;4.03;;;14.10;99.90;;;;;;5034662;28;20044;-82
2021/09/13 03:21:58;;;;;;;36.17;3.65;;;14.10;99.90;;;;;;5034673;28;20052;-82
2021/09/13 03:24:24;;;;;;;25.70;3.88;;;14.10;99.90;;;;;;5033041;28;20035;-83
2021/09/13 03:26:49;;;;;;;20.63;5.03;;;14.20;99.90;;;;;;5016306;28;20041;-83
2021/09/13 03:29:15;;;;;;;15.45;3.40;;;14.20;99.90;;;;;;5016883;28;20025;-81
2021/09/13 03:31:40;;;;;;;23.50;4.55;;;14.30;99.90;;;;;;5034452;28;20022;-83
2021/09/13 03:34:07;;;;;;;28.08;4.07;;;14.30;99.90;;;;;;5016434;28;20117;-83
2021/09/13 03:36:34;;;;;;;27.75;5.97;;;14.30;99.90;;;;;;5032790;28;20053;-83
2021/09/13 03:39:00;;;;;;;30.80;3.97;;;14.30;99.90;;;;;;5034193;28;20025;-82
2021/09/13 03:41:25;;;;;;;22.00;3.67;;;14.20;99.90;;;;;;5034274;28;20094;-83
2021/09/13 03:43:51;;;;;;;21.65;3.72;;;14.20;99.90;;;;;;5033997;28;20481;-83
2021/09/13 03:46:16;;;;;;;20.30;4.00;;;14.20;99.90;;;;;;5033780;28;20037;-83
2021/09/13 03:48:42;;;;;;;17.05;3.13;;;14.10;99.90;;;;;;5016354;28;20029;-82
2021/09/13 03:51:07;;;;;;;21.10;4.03;;;14.10;99.90;;;;;;5034130;28;20014;-83
2021/09/13 03:53:33;;;;;;;24.90;4.30;;;14.10;99.90;;;;;;5016181;28;20386;-82
2021/09/13 03:55:59;;;;;;;20.75;3.60;;;13.90;99.90;;;;;;5033450;28;20035;-83
2021/09/13 03:58:24;;;;;;;26.63;3.15;;;13.90;99.90;;;;;;5034175;28;20037;-83
2021/09/13 04:00:50;;;;;;;21.30;4.13;;;13.80;99.90;;;;;;5033863;28;20366;-83
2021/09/13 04:03:32;;;;;;;25.20;5.32;;;13.80;99.90;;;;;;5032639;28;20075;-84
2021/09/13 04:05:58;;;;;;;21.00;3.28;;;13.80;99.90;;;;;;5032174;28;20441;-82
2021/09/13 04:11:06;;;;;;;23.75;4.68;;;13.90;99.90;;;;;;5033744;28;20375;-82
2021/09/13 04:13:31;;;;;;;21.90;3.28;;;13.80;99.90;;;;;;5033722;28;20021;-83
2021/09/13 04:15:57;;;;;;;35.63;4.20;;;13.90;99.90;;;;;;5033369;28;20521;-82
2021/09/13 04:18:22;;;;;;;18.50;3.13;;;14.00;99.90;;;;;;5033229;28;20644;-82
2021/09/13 04:20:48;;;;;;;19.77;4.07;;;14.00;99.90;;;;;;5032642;28;20048;-83
2021/09/13 04:23:14;;;;;;;28.00;4.53;;;13.90;99.90;;;;;;5033482;28;20033;-83
2021/09/13 04:25:39;;;;;;;18.75;4.43;;;14.00;99.90;;;;;;5031804;28;20025;-83
2021/09/13 04:28:05;;;;;;;15.45;3.67;;;13.90;99.90;;;;;;5023928;28;20030;-83
2021/09/13 04:30:30;;;;;;;21.83;4.05;;;14.00;99.90;;;;;;5013592;28;20026;-83
2021/09/13 04:32:56;;;;;;;22.20;4.10;;;13.90;99.90;;;;;;5013490;28;20022;-83
2021/09/13 04:35:21;;;;;;;18.27;2.95;;;13.90;99.90;;;;;;5012031;28;20021;-83
2021/09/13 04:37:47;;;;;;;18.88;3.30;;;13.90;99.90;;;;;;5016525;28;20033;-83
2021/09/13 04:40:14;;;;;;;20.75;3.92;;;13.90;99.90;;;;;;5033220;28;20063;-84
2021/09/13 04:42:40;;;;;;;27.80;3.28;;;13.90;99.90;;;;;;5015417;28;20032;-84
2021/09/13 04:45:07;;;;;;;22.23;3.38;;;13.80;99.90;;;;;;5031507;28;20382;-83
2021/09/13 04:47:33;;;;;;;22.55;3.65;;;13.80;99.90;;;;;;5031616;28;20025;-83
2021/09/13 04:49:59;;;;;;;27.13;3.70;;;13.90;99.90;;;;;;5033185;28;20628;-83
2021/09/13 04:52:25;;;;;;;33.90;3.75;;;13.90;99.90;;;;;;5031683;28;20053;-83
2021/09/13 04:54:50;;;;;;;19.50;3.47;;;13.90;99.90;;;;;;5032648;28;20079;-82
2021/09/13 04:57:16;;;;;;;27.17;3.83;;;13.90;99.90;;;;;;5032809;28;20490;-84
2021/09/13 04:59:41;;;;;;;20.45;3.47;;;13.90;99.90;;;;;;5032224;28;20400;-84
2021/09/13 05:02:07;;;;;;;22.60;3.10;;;13.90;99.90;;;;;;5032779;28;20420;-83
2021/09/13 05:04:32;;;;;;;22.58;6.00;;;13.90;99.90;;;;;;5031176;28;20486;-82
2021/09/13 05:06:58;;;;;;;19.33;2.97;;;13.90;99.90;;;;;;5032509;28;20038;-83
2021/09/13 05:09:24;;;;;;;22.98;3.40;;;13.90;99.90;;;;;;5031984;28;20022;-83
2021/09/13 05:11:49;;;;;;;24.42;3.95;;;14.00;99.90;;;;;;5014828;28;20029;-84
2021/09/13 05:14:15;;;;;;;21.02;3.75;;;14.00;99.90;;;;;;5032359;28;20530;-83
2021/09/13 05:16:40;;;;;;;19.20;3.47;;;14.00;99.90;;;;;;5032696;28;20482;-83
2021/09/13 05:19:06;;;;;;;15.48;3.35;;;14.00;99.90;;;;;;5030998;28;20529;-83
2021/09/13 05:21:36;;;;;;;20.42;4.10;;;14.00;99.90;;;;;;5032387;28;20021;-83
2021/09/13 05:24:02;;;;;;;20.17;4.15;;;14.00;99.90;;;;;;5031000;28;20171;-84
2021/09/13 05:26:27;;;;;;;23.05;3.55;;;14.00;99.90;;;;;;5030882;28;20553;-83
2021/09/13 05:28:53;;;;;;;17.80;3.38;;;14.00;99.90;;;;;;5032271;28;20022;-83
2021/09/13 05:31:19;;;;;;;26.75;3.45;;;14.00;99.90;;;;;;5030867;28;20398;-83
2021/09/13 05:33:44;;;;;;;16.02;3.08;;;14.00;99.90;;;;;;5031837;28;20048;-84
2021/09/13 05:36:10;;;;;;;22.02;3.97;;;14.00;99.90;;;;;;5032087;28;20041;-84
2021/09/13 05:38:36;;;;;;;11.30;2.78;;;14.00;99.90;;;;;;5032119;28;20080;-84
2021/09/13 05:41:02;;;;;;;21.55;3.33;;;13.90;99.90;;;;;;5013661;28;20030;-84
2021/09/13 05:43:27;;;;;;;24.50;3.60;;;14.00;99.90;;;;;;5031067;28;20037;-84
2021/09/13 05:45:54;;;;;;;14.15;3.20;;;14.00;99.90;;;;;;5031692;28;20025;-84
2021/09/13 05:48:20;;;;;;;26.35;3.75;;;14.10;99.90;;;;;;5032016;28;20024;-83
2021/09/13 05:50:46;;;;;;;21.20;2.90;;;14.00;99.90;;;;;;5031620;28;20100;-83
2021/09/13 05:53:11;;;;;;;17.73;3.90;;;14.10;99.90;;;;;;5030731;28;20013;-84
2021/09/13 05:55:42;;;;;;;18.65;3.97;;;14.10;99.90;;;;;;5031529;28;20026;-82
2021/09/13 05:58:07;;;;;;;17.95;3.55;;;14.10;99.90;;;;;;5031966;28;20029;-84
2021/09/13 06:00:33;;;;;;;21.55;3.08;;;14.20;99.90;;;;;;5030427;28;20034;-83
2021/09/13 06:02:59;;;;;;;18.10;3.47;;;14.10;99.90;;;;;;5029956;28;20057;-83
2021/09/13 06:05:24;;;;;;;19.42;3.03;;;14.20;99.90;;;;;;5031042;28;20041;-83
2021/09/13 06:07:50;;;;;;;33.10;3.88;;;14.20;99.90;;;;;;5031097;28;20021;-83
2021/09/13 06:10:15;;;;;;;15.25;2.92;;;14.30;99.90;;;;;;5030278;28;20018;-82
2021/09/13 06:12:41;;;;;;;26.20;4.60;;;14.30;99.90;;;;;;5014428;28;20028;-82
2021/09/13 06:15:08;;;;;;;13.25;2.55;;;14.30;99.90;;;;;;5030117;28;20061;-82
2021/09/13 06:17:33;;;;;;;19.75;4.88;;;14.40;99.90;;;;;;5013888;28;20030;-83
2021/09/13 06:19:59;;;;;;;20.77;2.78;;;14.40;99.90;;;;;;5031502;28;20026;-83
2021/09/13 06:22:24;;;;;;;17.88;3.80;;;14.40;99.90;;;;;;5030882;28;20032;-82
2021/09/13 06:24:50;;;;;;;19.48;3.17;;;14.40;99.90;;;;;;5030940;28;20068;-84
2021/09/13 06:27:15;;;;;;;27.55;3.83;;;14.50;99.90;;;;;;5031447;28;20036;-83
2021/09/13 06:29:41;;;;;;;17.05;4.15;;;14.50;99.90;;;;;;5030199;28;20083;-83
2021/09/13 06:32:07;;;;;;;19.90;3.25;;;14.50;99.90;;;;;;5031262;28;20021;-82
2021/09/13 06:34:33;;;;;;;23.73;3.30;;;14.70;99.90;;;;;;5031157;28;20049;-83
2021/09/13 06:36:58;;;;;;;18.15;3.22;;;14.70;99.90;;;;;;5031153;28;20017;-83
2021/09/13 06:39:24;;;;;;;18.70;3.38;;;14.70;99.90;;;;;;5013836;28;20112;-83
2021/09/13 06:41:50;;;;;;;21.73;4.00;;;14.80;99.90;;;;;;5031018;28;20037;-84
2021/09/13 06:44:21;;;;;;;19.17;3.70;;;14.90;99.90;;;;;;5032278;28;20033;-84
2021/09/13 06:46:50;;;;;;;16.15;3.40;;;14.90;99.90;;;;;;5017589;28;20025;-82
2021/09/13 06:49:18;;;;;;;21.17;3.78;;;14.90;99.90;;;;;;5033983;28;20083;-83
2021/09/13 06:51:44;;;;;;;14.55;3.17;;;15.00;99.90;;;;;;5035032;28;20056;-84
2021/09/13 06:54:09;;;;;;;12.80;3.58;;;15.00;99.90;;;;;;5033692;28;20061;-84
2021/09/13 06:56:35;;;;;;;15.90;3.10;;;15.10;99.90;;;;;;5035151;28;20055;-84
2021/09/13 06:59:01;;;;;;;19.83;3.65;;;15.20;99.90;;;;;;5035369;28;20017;-84
2021/09/13 07:01:31;;;;;;;13.95;3.28;;;15.20;99.90;;;;;;5033933;28;20033;-84
2021/09/13 07:03:59;;;;;;;23.08;4.43;;;15.30;99.90;;;;;;5033563;28;20033;-83
2021/09/13 07:06:28;;;;;;;17.77;3.30;;;15.30;99.90;;;;;;5034635;28;20029;-83
2021/09/13 07:08:54;;;;;;;38.03;5.55;;;15.30;99.90;;;;;;5034137;28;20559;-83
2021/09/13 07:11:20;;;;;;;20.63;3.38;;;15.30;99.90;;;;;;5034889;28;20397;-83
2021/09/13 07:13:46;;;;;;;23.25;4.18;;;15.30;99.90;;;;;;5033328;28;20026;-82
2021/09/13 07:16:11;;;;;;;25.85;4.57;;;15.30;99.90;;;;;;5034673;28;20106;-83
2021/09/13 07:18:37;;;;;;;12.82;2.58;;;15.30;99.90;;;;;;5033419;28;20418;-82
2021/09/13 07:21:03;;;;;;;15.93;3.78;;;15.30;99.90;;;;;;5033192;28;20034;-83
2021/09/13 07:23:28;;;;;;;21.20;3.33;;;15.50;99.90;;;;;;5034624;28;20076;-84
2021/09/13 07:25:54;;;;;;;19.35;4.55;;;15.50;99.90;;;;;;5032994;28;20025;-84
2021/09/13 07:28:20;;;;;;;34.92;4.78;;;15.50;99.90;;;;;;5016872;28;20104;-82
2021/09/13 07:30:47;;;;;;;12.77;3.50;;;15.70;99.90;;;;;;5034051;28;20022;-83
2021/09/13 07:33:13;;;;;;;21.63;2.97;;;15.80;99.90;;;;;;5032513;28;20465;-83
2021/09/13 07:35:39;;;;;;;24.38;3.35;;;15.80;99.90;;;;;;5034160;28;20101;-84
2021/09/13 07:38:04;;;;;;;21.13;3.42;;;15.80;99.90;;;;;;5034375;28;20646;-83
2021/09/13 07:40:30;;;;;;;13.65;3.00;;;15.80;99.90;;;;;;5034331;28;20108;-82
2021/09/13 07:42:56;;;;;;;25.85;4.22;;;15.70;99.90;;;;;;5032517;28;20021;-82
2021/09/13 07:45:22;;;;;;;42.97;5.97;;;15.70;99.90;;;;;;5033535;28;20628;-82
2021/09/13 07:47:48;;;;;;;30.42;3.75;;;15.90;99.90;;;;;;5032941;28;20025;-82
2021/09/13 07:50:14;;;;;;;25.38;3.35;;;15.90;99.90;;;;;;5016429;28;20067;-83
2021/09/13 07:52:39;;;;;;;19.55;3.90;;;15.90;99.90;;;;;;5032705;28;20068;-82
2021/09/13 07:55:05;;;;;;;26.58;4.45;;;15.90;99.90;;;;;;5032030;28;20025;-82
2021/09/13 07:57:31;;;;;;;19.13;3.80;;;15.90;99.90;;;;;;5033162;28;20151;-82
2021/09/13 07:59:57;;;;;;;24.48;3.92;;;15.90;99.90;;;;;;5033902;28;20120;-83
2021/09/13 08:02:23;;;;;;;21.08;3.28;;;16.00;99.90;;;;;;5032453;28;20496;-82
2021/09/13 08:04:49;;;;;;;17.55;3.08;;;16.00;99.90;;;;;;5032308;28;20026;-82
2021/09/13 08:07:14;;;;;;;25.10;4.43;;;16.10;99.90;;;;;;5033786;28;20033;-83
2021/09/13 08:09:40;;;;;;;13.82;3.45;;;16.10;99.90;;;;;;5032167;28;20027;-83
2021/09/13 08:12:06;;;;;;;29.45;4.70;;;16.30;99.90;;;;;;5015994;28;20386;-82
2021/09/13 08:14:31;;;;;;;15.38;3.47;;;16.30;99.90;;;;;;5033286;28;20109;-82
2021/09/13 08:16:57;;;;;;;24.73;4.03;;;16.30;99.90;;;;;;5032315;28;20033;-83
2021/09/13 08:19:22;;;;;;;17.80;4.03;;;16.50;99.90;;;;;;5025732;28;20471;-82
2021/09/13 08:21:48;;;;;;;17.23;3.40;;;16.60;99.90;;;;;;5030286;28;20021;-82
2021/09/13 08:24:14;;;;;;;19.00;3.85;;;16.70;99.90;;;;;;5031370;28;20025;-84
2021/09/13 08:26:40;;;;;;;21.70;3.83;;;16.60;99.90;;;;;;5032083;28;20029;-85
2021/09/13 08:29:14;;;;;;;25.27;3.97;;;16.60;99.90;;;;;;5033397;28;20044;-81
2021/09/13 08:31:40;;;;;;;24.58;3.67;;;16.60;99.90;;;;;;5032166;28;20492;-79
2021/09/13 08:34:05;;;;;;;19.27;4.22;;;16.50;99.90;;;;;;5032849;28;20053;-81
2021/09/13 08:36:31;;;;;;;16.02;3.55;;;16.50;99.90;;;;;;5033237;28;20057;-82
2021/09/13 08:38:56;;;;;;;21.00;2.85;;;16.60;99.90;;;;;;5033127;28;20034;-84
2021/09/13 08:41:22;;;;;;;20.98;4.68;;;16.70;99.90;;;;;;5015493;28;20102;-82
2021/09/13 08:43:48;;;;;;;18.33;2.88;;;17.00;99.90;;;;;;5031416;28;20045;-82
2021/09/13 08:46:19;;;;;;;20.88;3.70;;;17.00;99.90;;;;;;5031686;28;20509;-84
2021/09/13 08:53:43;;;;;;;22.50;4.03;;;17.20;99.90;;;;;;5032765;28;20496;-80
2021/09/13 08:56:15;;;;;;;31.33;4.05;;;17.20;99.90;;;;;;5032661;28;20022;-82
2021/09/13 08:58:42;;;;;;;21.42;4.05;;;17.30;99.90;;;;;;5031601;28;20502;-81
2021/09/13 09:01:08;;;;;;;26.75;2.97;;;17.30;99.90;;;;;;5032766;28;20035;-80
2021/09/13 09:03:39;;;;;;;11.68;3.20;;;17.30;99.90;;;;;;5032773;28;20446;-79
2021/09/13 09:06:05;;;;;;;16.52;3.55;;;17.40;99.90;;;;;;5031663;28;20498;-82
2021/09/13 09:08:34;;;;;;;23.92;3.78;;;17.30;99.90;;;;;;5031784;28;20026;-81
2021/09/13 09:11:06;;;;;;;16.35;3.22;;;17.60;99.90;;;;;;5032309;28;20017;-84
2021/09/13 09:13:43;;;;;;;30.05;4.00;;;17.70;99.90;;;;;;5032528;28;20030;-81
2021/09/13 09:16:12;;;;;;;16.55;3.20;;;17.70;99.90;;;;;;5032102;28;20546;-82
2021/09/13 09:18:41;;;;;;;17.90;3.35;;;17.80;99.90;;;;;;5032565;28;20044;-81
2021/09/13 09:21:26;;;;;;;26.90;2.95;;;17.80;99.90;;;;;;5032440;28;20033;-80
2021/09/13 09:23:55;;;;;;;20.80;3.55;;;17.70;99.90;;;;;;5032208;28;20402;-80
2021/09/13 09:26:21;;;;;;;20.38;2.90;;;18.00;99.90;;;;;;5031869;28;20108;-81
2021/09/13 09:28:47;;;;;;;30.73;4.55;;;17.90;99.90;;;;;;5032269;28;20524;-82
2021/09/13 09:31:13;;;;;;;13.02;2.78;;;17.90;99.90;;;;;;5032258;28;20078;-82
2021/09/13 09:33:38;;;;;;;20.02;2.60;;;17.80;99.90;;;;;;5032077;28;20052;-82
2021/09/13 09:36:11;;;;;;;26.92;4.25;;;17.60;99.90;;;;;;5031755;28;20056;-81
2021/09/13 09:38:39;;;;;;;15.60;3.80;;;17.50;99.90;;;;;;5032251;28;20025;-80
2021/09/13 09:41:17;;;;;;;23.70;3.20;;;17.60;99.90;;;;;;5030470;28;20041;-81
2021/09/13 09:44:01;;;;;;;12.43;2.30;;;17.50;99.90;;;;;;5031895;28;20494;-82
2021/09/13 09:46:41;;;;;;;24.03;3.77;;;17.50;99.90;;;;;;5031672;28;20040;-80
2021/09/13 09:49:12;;;;;;;16.88;3.20;;;17.50;99.90;;;;;;5031995;28;20295;-80
2021/09/13 09:51:41;;;;;;;15.65;3.00;;;17.60;99.90;;;;;;5031973;28;20056;-81
2021/09/13 09:54:12;;;;;;;14.88;3.55;;;17.70;99.90;;;;;;5031781;28;20486;-82
2021/09/13 09:56:39;;;;;;;22.40;3.38;;;17.70;99.90;;;;;;5031772;28;20651;-82
2021/09/13 09:59:10;;;;;;;15.35;3.13;;;17.90;99.90;;;;;;5030675;28;20021;-80
2021/09/13 10:01:46;;;;;;;23.08;3.10;;;18.00;99.90;;;;;;5031984;28;20036;-82
2021/09/13 10:04:24;;;;;;;14.95;3.17;;;17.80;99.90;;;;;;5031632;28;20076;-82
2021/09/13 10:06:53;;;;;;;15.18;3.00;;;17.80;99.90;;;;;;5030244;28;20026;-82
2021/09/13 10:09:20;;;;;;;29.50;3.80;;;17.90;99.90;;;;;;5031389;28;20017;-80
2021/09/13 10:11:48;;;;;;;14.73;3.45;;;18.00;99.90;;;;;;5031849;28;20101;-82
2021/09/13 10:14:16;;;;;;;19.05;3.10;;;17.90;99.90;;;;;;5031480;28;20512;-82
2021/09/13 10:16:44;;;;;;;15.13;3.83;;;17.90;99.90;;;;;;5031269;28;20065;-81
2021/09/13 10:19:11;;;;;;;21.88;3.53;;;18.00;99.90;;;;;;5025061;28;20531;-82
2021/09/13 10:21:36;;;;;;;19.30;2.72;;;17.90;99.90;;;;;;5031452;28;20021;-79
2021/09/13 10:24:07;;;;;;;17.52;2.92;;;17.80;99.90;;;;;;5029474;28;20025;-82
2021/09/13 10:26:34;;;;;;;32.92;3.08;;;17.80;99.90;;;;;;5037711;28;20147;-80
2021/09/13 10:29:02;;;;;;;19.20;3.25;;;17.70;99.90;;;;;;5028860;28;20079;-80
2021/09/13 10:31:46;;;;;;;15.65;3.47;;;17.50;99.90;;;;;;5030741;28;20028;-81
2021/09/13 10:34:35;;;;;;;11.82;2.63;;;17.70;99.90;;;;;;5036046;28;20018;-83
2021/09/13 10:37:16;;;;;;;10.40;2.42;;;17.60;99.90;;;;;;5035806;28;20028;-82
2021/09/13 10:39:58;;;;;;;30.17;4.15;;;17.60;99.90;;;;;;5031009;28;20420;-81
2021/09/13 10:42:44;;;;;;;13.02;3.10;;;17.70;99.90;;;;;;5020752;28;20083;-81
2021/09/13 10:45:18;;;;;;;12.73;3.25;;;17.70;99.90;;;;;;5034895;28;20059;-80
2021/09/13 10:48:01;;;;;;;30.10;3.38;;;17.70;99.90;;;;;;5034067;28;20064;-82
2021/09/13 10:50:42;;;;;;;16.77;3.13;;;17.90;99.90;;;;;;5035048;28;20018;-81
2021/09/13 10:53:17;;;;;;;16.15;2.95;;;17.90;99.90;;;;;;4997871;28;20072;-82
2021/09/13 10:55:45;;;;;;;17.05;3.08;;;17.90;99.90;;;;;;5015026;28;20138;-80
2021/09/13 10:58:12;;;;;;;20.63;2.92;;;17.80;99.90;;;;;;5015297;28;20040;-79
2021/09/13 11:00:41;;;;;;;13.40;3.05;;;17.70;99.90;;;;;;5014104;28;20026;-81
2021/09/13 11:03:22;;;;;;;25.23;3.05;;;17.70;99.90;;;;;;5033266;28;20112;-81
2021/09/13 11:06:08;;;;;;;19.88;4.25;;;17.60;99.90;;;;;;5034694;28;20021;-82
2021/09/13 11:08:41;;;;;;;22.40;3.22;;;18.00;99.90;;;;;;5023880;28;20112;-82
2021/09/13 11:11:09;;;;;;;16.67;3.47;;;18.30;99.90;;;;;;5017179;28;20028;-81
2021/09/13 11:13:35;;;;;;;13.60;2.55;;;18.30;99.90;;;;;;5032696;28;20064;-81
2021/09/13 11:16:01;;;;;;;13.55;3.25;;;18.50;99.90;;;;;;5034435;28;20025;-83
2021/09/13 11:18:41;;;;;;;20.80;3.63;;;18.70;99.90;;;;;;5034792;28;20390;-86
2021/09/13 11:21:33;;;;;;;16.80;2.65;;;18.70;99.90;;;;;;5034707;28;20021;-82
2021/09/13 11:24:07;;;;;;;14.60;2.75;;;18.70;99.90;;;;;;5033212;28;20036;-83
2021/09/13 11:26:34;;;;;;;;;;;18.90;99.90;;;;;;5034876;28;20033;-82
2021/09/13 11:29:08;;;;;;;13.45;2.67;;;19.10;99.90;;;;;;5034508;28;19912;-82
2021/09/13 11:31:38;;;;;;;13.65;3.28;;;19.40;99.90;;;;;;5032950;28;20018;-82
2021/09/13 11:34:26;;;;;;;14.63;2.60;;;19.60;99.90;;;;;;5016178;28;20520;-82
2021/09/13 11:37:14;;;;;;;11.55;2.90;;;19.40;99.90;;;;;;5016142;28;20037;-82
2021/09/13 11:39:44;;;;;;;16.52;3.92;;;19.60;99.90;;;;;;5034435;28;20106;-83
2021/09/13 11:42:16;;;;;;;15.40;2.70;;;19.80;99.90;;;;;;5034248;28;20249;-82
2021/09/13 11:44:57;;;;;;;16.08;2.72;;;19.80;99.90;;;;;;5032629;28;20026;-82
2021/09/13 11:47:25;;;;;;;18.27;2.85;;;19.50;99.90;;;;;;5034040;28;20033;-82
2021/09/13 11:49:54;;;;;;;21.15;3.38;;;19.30;99.90;;;;;;5032894;28;20021;-84
2021/09/13 11:52:29;;;;;;;12.80;2.35;;;19.00;99.90;;;;;;5032971;28;20033;-82
2021/09/13 11:55:02;;;;;;;14.63;2.42;;;19.10;99.90;;;;;;5032374;28;20025;-83
2021/09/13 11:57:41;;;;;;;15.13;2.65;;;19.80;99.90;;;;;;5034008;28;20033;-83
2021/09/13 12:00:23;;;;;;;13.90;2.63;;;20.30;99.90;;;;;;5032795;28;20148;-81
2021/09/13 12:02:55;;;;;;;15.13;2.55;;;19.90;99.90;;;;;;5033964;28;20021;-80
2021/09/13 12:05:24;;;;;;;20.95;3.53;;;19.40;99.90;;;;;;5033367;28;20034;-82
2021/09/13 12:07:52;;;;;;;20.85;2.72;;;19.20;99.90;;;;;;5033605;28;20551;-82
2021/09/13 12:10:22;;;;;;;15.40;2.75;;;18.80;99.90;;;;;;5032586;28;20025;-82
2021/09/13 12:12:50;;;;;;;15.88;3.45;;;18.70;99.90;;;;;;5033855;28;20132;-82
2021/09/13 12:15:17;;;;;;;10.82;2.70;;;18.60;99.90;;;;;;5031683;28;20040;-84
2021/09/13 12:17:48;;;;;;;19.65;3.28;;;18.50;99.90;;;;;;5033713;28;20367;-84
2021/09/13 12:20:17;;;;;;;10.80;2.50;;;18.50;99.90;;;;;;5033576;28;20057;-86
2021/09/13 12:22:45;;;;;;;16.77;2.67;;;18.50;99.90;;;;;;5033546;28;20112;-86
2021/09/13 12:25:15;;;;;;;10.63;2.80;;;18.50;99.90;;;;;;5015184;28;20087;-86
2021/09/13 12:27:49;;;;;;;11.10;2.20;;;18.70;99.90;;;;;;5033505;28;20030;-86
2021/09/13 12:30:23;;;;;;;12.13;2.67;;;19.00;99.90;;;;;;5032182;28;20475;-84
2021/09/13 12:32:58;;;;;;;12.05;2.90;;;19.40;99.90;;;;;;5033318;28;20018;-84
2021/09/13 12:35:38;;;;;;;16.10;3.53;;;19.30;99.90;;;;;;5032811;28;20034;-84
2021/09/13 12:38:07;;;;;;;16.67;2.53;;;19.10;99.90;;;;;;5033291;28;20029;-85
2021/09/13 12:40:50;;;;;;;15.82;2.40;;;19.00;99.90;;;;;;5033284;28;20414;-84
2021/09/13 12:43:22;;;;;;;15.85;3.63;;;18.90;99.90;;;;;;5032389;28;20025;-84
2021/09/13 12:45:48;;;;;;;20.92;4.18;;;18.70;99.90;;;;;;5031156;28;20100;-86
2021/09/13 12:48:27;;;;;;;14.20;2.95;;;18.70;99.90;;;;;;5033134;28;20072;-83